createdAt,value
2022-08-14T00:02:02.248Z,65.43
2022-08-14T00:05:08.909Z,65.52
2022-08-14T00:08:14.197Z,65.73
2022-08-14T00:11:17.669Z,65.91
2022-08-14T00:14:20.627Z,65.82
2022-08-14T00:17:24.788Z,65.76
2022-08-14T00:20:41.187Z,66.30
2022-08-14T00:23:45.876Z,66.41
2022-08-14T00:27:02.261Z,66.54
2022-08-14T00:30:08.247Z,66.89
2022-08-14T00:33:15.516Z,67.06
2022-08-14T00:36:48.068Z,67.29
2022-08-14T00:39:46.822Z,67.67
2022-08-14T00:43:02.950Z,67.65
2022-08-14T00:46:08.011Z,67.86
2022-08-14T00:49:14.658Z,67.98
2022-08-14T00:52:18.122Z,68.40
2022-08-14T00:55:21.694Z,68.45
2022-08-14T00:58:33.093Z,68.17
2022-08-14T01:01:37.120Z,68.34
2022-08-14T01:04:53.778Z,68.45
2022-08-14T01:07:58.560Z,68.87
2022-08-14T01:11:01.348Z,68.95
2022-08-14T01:14:25.446Z,69.00
2022-08-14T01:17:50.458Z,68.89
2022-08-14T01:21:15.225Z,69.08
2022-08-14T01:24:30.227Z,69.29
2022-08-14T01:27:53.869Z,69.60
2022-08-14T01:31:01.888Z,69.50
2022-08-14T01:35:20.711Z,69.52
2022-08-14T01:37:29.265Z,69.65
2022-08-14T01:40:41.080Z,69.65
2022-08-14T01:43:56.745Z,69.77
2022-08-14T01:47:06.030Z,69.96
2022-08-14T01:50:10.176Z,70.16
2022-08-14T01:53:13.666Z,70.31
2022-08-14T01:56:18.849Z,70.43
2022-08-14T01:59:21.998Z,70.60
2022-08-14T02:02:24.886Z,70.53
2022-08-14T02:05:35.534Z,70.34
2022-08-14T02:08:52.931Z,70.60
2022-08-14T02:11:58.119Z,70.68
2022-08-14T02:15:01.532Z,70.64
2022-08-14T02:18:05.468Z,70.78
2022-08-14T02:21:12.617Z,70.76
2022-08-14T02:24:39.111Z,71.08
2022-08-14T02:28:24.820Z,71.15
2022-08-14T02:31:09.023Z,71.17
2022-08-14T02:34:26.108Z,71.07
2022-08-14T02:37:47.263Z,71.41
2022-08-14T02:40:51.527Z,71.30
2022-08-14T02:43:54.404Z,71.66
2022-08-14T02:47:03.859Z,71.74
2022-08-14T02:50:12.057Z,71.71
2022-08-14T02:53:15.235Z,71.70
2022-08-14T02:57:13.894Z,71.53
2022-08-14T02:59:43.151Z,71.65
2022-08-14T03:02:55.840Z,72.63
2022-08-14T03:06:00.993Z,72.73
2022-08-14T03:09:04.719Z,72.53
2022-08-14T03:12:07.432Z,72.37
2022-08-14T03:15:16.431Z,72.51
2022-08-14T03:18:31.326Z,72.87
2022-08-14T03:21:37.192Z,72.58
2022-08-14T03:24:39.733Z,72.49
2022-08-14T03:27:47.809Z,72.63
2022-08-14T03:30:51.795Z,72.68
2022-08-14T03:34:00.222Z,73.31
2022-08-14T03:37:37.718Z,73.22
2022-08-14T03:40:26.920Z,73.10
2022-08-14T03:43:32.646Z,72.88
2022-08-14T03:46:52.124Z,73.10
2022-08-14T03:49:56.185Z,73.19
2022-08-14T03:53:02.254Z,73.77
2022-08-14T03:56:06.382Z,73.67
2022-08-14T03:59:17.633Z,73.80
2022-08-14T04:02:33.377Z,73.86
2022-08-14T04:05:49.099Z,74.18
2022-08-14T04:08:53.308Z,73.98
2022-08-14T04:12:01.940Z,74.21
2022-08-14T04:15:05.967Z,74.53
2022-08-14T04:18:10.515Z,74.61
2022-08-14T04:21:16.131Z,74.77
2022-08-14T04:24:20.081Z,75.13
2022-08-14T04:27:29.510Z,75.45
2022-08-14T04:30:38.668Z,75.41
2022-08-14T04:33:44.871Z,75.52
2022-08-14T04:37:07.429Z,75.38
2022-08-14T04:40:29.720Z,75.35
2022-08-14T04:43:38.861Z,75.29
2022-08-14T04:47:02.110Z,75.44
2022-08-14T04:50:05.828Z,75.47
2022-08-14T04:53:11.126Z,74.93
2022-08-14T04:56:31.412Z,74.64
2022-08-14T04:59:37.175Z,74.12
2022-08-14T05:02:46.259Z,73.82
2022-08-14T05:05:51.370Z,73.59
2022-08-14T05:08:59.883Z,73.21
2022-08-14T05:13:14.182Z,73.15
2022-08-14T05:15:32.074Z,72.90
2022-08-14T05:19:25.328Z,72.68
2022-08-14T05:22:16.601Z,72.45
2022-08-14T05:25:20.736Z,71.97
2022-08-14T05:28:25.353Z,71.44
2022-08-14T05:31:30.215Z,71.18
2022-08-14T05:34:45.817Z,71.42
2022-08-14T05:37:50.183Z,71.31
2022-08-14T05:40:53.440Z,71.26
2022-08-14T05:43:56.624Z,71.08
2022-08-14T05:47:01.101Z,70.79
2022-08-14T05:50:03.982Z,70.93
2022-08-14T05:53:08.572Z,70.45
2022-08-14T05:56:14.228Z,70.06
2022-08-14T05:59:17.109Z,69.42
2022-08-14T06:02:21.907Z,69.23
2022-08-14T06:05:28.937Z,68.17
2022-08-14T06:08:36.271Z,67.46
2022-08-14T06:11:44.604Z,67.32
2022-08-14T06:14:52.519Z,67.91
2022-08-14T06:17:59.037Z,67.84
2022-08-14T06:21:06.270Z,67.17
2022-08-14T06:24:18.862Z,65.89
2022-08-14T06:27:21.733Z,66.32
2022-08-14T06:30:30.240Z,65.46
2022-08-14T06:35:10.162Z,64.24
2022-08-14T06:37:13.026Z,64.27
2022-08-14T06:40:26.769Z,62.88
2022-08-14T06:43:31.864Z,61.58
2022-08-14T06:46:37.305Z,60.48
2022-08-14T06:49:44.271Z,60.72
2022-08-14T06:52:50.074Z,60.83
2022-08-14T06:55:58.253Z,59.62
2022-08-14T06:59:05.218Z,58.89
2022-08-14T07:02:29.078Z,57.65
2022-08-14T07:05:55.217Z,57.45
2022-08-14T07:09:01.626Z,57.66
2022-08-14T07:12:04.587Z,57.58
2022-08-14T07:15:08.113Z,56.38
2022-08-14T07:18:12.109Z,56.49
2022-08-14T07:21:16.105Z,55.45
2022-08-14T07:24:21.711Z,55.73
2022-08-14T07:27:25.233Z,55.02
2022-08-14T07:30:33.782Z,54.70
2022-08-14T07:33:51.574Z,54.76
2022-08-14T07:37:00.747Z,53.63
2022-08-14T07:40:06.027Z,53.37
2022-08-14T07:43:14.433Z,53.09
2022-08-14T07:46:21.212Z,51.71
2022-08-14T07:49:34.374Z,51.63
2022-08-14T07:52:38.294Z,51.80
2022-08-14T07:55:42.940Z,51.70
2022-08-14T07:58:51.662Z,50.24
2022-08-14T08:01:58.562Z,49.60
2022-08-14T08:05:02.661Z,49.17
2022-08-14T08:08:08.323Z,48.79
2022-08-14T08:11:34.882Z,48.69
2022-08-14T08:14:56.135Z,48.07
2022-08-14T08:18:08.326Z,48.20
2022-08-14T08:21:23.282Z,46.43
2022-08-14T08:24:30.268Z,45.97
2022-08-14T08:27:32.989Z,46.45
2022-08-14T08:30:45.091Z,46.09
2022-08-14T08:33:53.059Z,45.42
2022-08-14T08:36:58.327Z,44.92
2022-08-14T08:40:03.422Z,44.61
2022-08-14T08:43:16.260Z,43.56
2022-08-14T08:46:23.805Z,43.11
2022-08-14T08:49:53.050Z,42.56
2022-08-14T08:53:06.124Z,41.58
2022-08-14T08:56:09.064Z,41.43
2022-08-14T08:59:31.034Z,41.27
2022-08-14T09:02:34.631Z,39.96
2022-08-14T09:05:48.732Z,39.36
2022-08-14T09:08:52.375Z,38.84
2022-08-14T09:11:56.751Z,39.39
2022-08-14T09:15:11.455Z,38.88
2022-08-14T09:18:18.431Z,38.62
2022-08-14T09:21:24.080Z,38.76
2022-08-14T09:24:35.327Z,38.20
2022-08-14T09:27:40.231Z,38.25
2022-08-14T09:30:48.130Z,38.20
2022-08-14T09:33:56.380Z,37.78
2022-08-14T09:37:08.341Z,37.44
2022-08-14T09:40:29.377Z,36.41
2022-08-14T09:43:53.075Z,36.31
2022-08-14T09:46:57.937Z,36.83
2022-08-14T09:50:01.493Z,36.20
2022-08-14T09:53:10.458Z,35.80
2022-08-14T09:56:24.399Z,35.67
2022-08-14T09:59:46.368Z,35.21
2022-08-14T10:03:05.872Z,34.14
2022-08-14T10:06:10.070Z,34.67
2022-08-14T10:09:16.794Z,33.68
2022-08-14T10:12:28.629Z,33.88
2022-08-14T10:15:33.210Z,33.15
2022-08-14T10:18:36.301Z,32.71
2022-08-14T10:21:58.389Z,33.21
2022-08-14T10:25:17.547Z,33.40
2022-08-14T10:28:39.156Z,34.50
2022-08-14T10:31:45.835Z,33.86
2022-08-14T10:34:52.810Z,34.27
2022-08-14T10:38:00.747Z,34.32
2022-08-14T10:41:16.403Z,34.42
2022-08-14T10:44:23.192Z,34.05
2022-08-14T10:47:40.820Z,34.04
2022-08-14T10:51:00.796Z,32.17
2022-08-14T10:54:17.177Z,31.86
2022-08-14T10:57:35.555Z,31.47
2022-08-14T11:00:42.809Z,31.78
2022-08-14T11:03:56.625Z,31.43
2022-08-14T11:06:59.627Z,32.34
2022-08-14T11:10:14.812Z,31.11
2022-08-14T11:13:21.359Z,31.86
2022-08-14T11:16:28.706Z,32.15
2022-08-14T11:19:33.801Z,31.43
2022-08-14T11:22:57.065Z,31.45
2022-08-14T11:26:02.418Z,29.72
2022-08-14T11:29:10.454Z,29.34
2022-08-14T11:32:13.044Z,29.22
2022-08-14T11:35:21.092Z,29.29
2022-08-14T11:38:23.744Z,28.90
2022-08-14T11:41:34.546Z,28.10
2022-08-14T11:44:45.978Z,27.35
2022-08-14T11:48:12.881Z,28.67
2022-08-14T11:51:14.625Z,27.27
2022-08-14T11:54:20.048Z,27.39
2022-08-14T11:57:23.016Z,27.88
2022-08-14T12:00:31.640Z,28.89
2022-08-14T12:03:51.426Z,28.35
2022-08-14T12:06:56.001Z,28.31
2022-08-14T12:09:59.576Z,28.13
2022-08-14T12:13:13.983Z,27.82
2022-08-14T12:16:22.926Z,27.82
2022-08-14T12:19:26.300Z,27.62
2022-08-14T12:22:36.263Z,27.41
2022-08-14T12:25:39.752Z,26.09
2022-08-14T12:28:59.262Z,26.37
2022-08-14T12:32:12.561Z,26.15
2022-08-14T12:35:15.656Z,25.68
2022-08-14T12:38:20.852Z,26.29
2022-08-14T12:41:28.196Z,25.97
2022-08-14T12:44:42.973Z,26.17
2022-08-14T12:47:46.611Z,25.68
2022-08-14T12:50:54.760Z,24.73
2022-08-14T12:53:59.501Z,24.32
2022-08-14T12:57:19.335Z,23.54
2022-08-14T13:00:25.499Z,23.97
2022-08-14T13:03:29.417Z,23.87
2022-08-14T13:06:36.381Z,23.81
2022-08-14T13:09:39.192Z,23.09
2022-08-14T13:13:11.894Z,23.90
2022-08-14T13:16:20.563Z,23.12
2022-08-14T13:19:26.784Z,22.80
2022-08-14T13:22:38.402Z,22.84
2022-08-14T13:25:56.162Z,21.89
2022-08-14T13:29:03.395Z,21.78
2022-08-14T13:32:09.305Z,20.92
2022-08-14T13:35:17.462Z,19.80
2022-08-14T13:38:22.084Z,19.61
2022-08-14T13:41:34.551Z,20.01
2022-08-14T13:44:42.581Z,20.68
2022-08-14T13:47:46.709Z,19.24
2022-08-14T13:50:55.141Z,19.31
2022-08-14T13:54:10.170Z,20.75
2022-08-14T13:57:17.651Z,21.01
2022-08-14T14:00:32.565Z,20.86
2022-08-14T14:03:37.763Z,21.60
2022-08-14T14:06:40.719Z,21.17
2022-08-14T14:09:52.414Z,21.47
2022-08-14T14:12:56.617Z,21.43
2022-08-14T14:16:02.354Z,20.85
2022-08-14T14:19:09.837Z,21.69
2022-08-14T14:23:00.904Z,21.95
2022-08-14T14:25:48.134Z,21.25
2022-08-14T14:28:56.710Z,21.49
2022-08-14T14:32:01.366Z,22.11
2022-08-14T14:35:05.202Z,22.24
2022-08-14T14:38:09.159Z,21.69
2022-08-14T14:41:15.080Z,22.23
2022-08-14T14:44:24.961Z,22.69
2022-08-14T14:47:30.103Z,22.52
2022-08-14T14:50:35.042Z,23.65
2022-08-14T14:53:41.680Z,23.90
2022-08-14T14:56:50.258Z,23.76
2022-08-14T14:59:55.757Z,23.96
2022-08-14T15:02:59.545Z,23.91
2022-08-14T15:06:03.350Z,23.79
2022-08-14T15:09:08.899Z,24.49
2022-08-14T15:12:34.461Z,24.82
2022-08-14T15:15:37.419Z,25.00
2022-08-14T15:18:46.408Z,24.13
2022-08-14T15:21:51.412Z,24.42
2022-08-14T15:24:54.284Z,24.56
2022-08-14T15:27:57.101Z,23.96
2022-08-14T15:31:00.001Z,23.98
2022-08-14T15:34:43.939Z,24.11
2022-08-14T15:37:37.183Z,24.40
2022-08-14T15:40:51.361Z,24.27
2022-08-14T15:44:00.020Z,24.59
2022-08-14T15:47:07.205Z,24.46
2022-08-14T15:50:10.337Z,24.43
2022-08-14T15:53:13.360Z,24.46
2022-08-14T15:56:32.785Z,24.88
2022-08-14T15:59:58.667Z,24.83
2022-08-14T16:03:02.951Z,24.75
2022-08-14T16:06:11.009Z,25.21
2022-08-14T16:09:18.464Z,25.52
2022-08-14T16:12:41.226Z,25.23
2022-08-14T16:15:53.456Z,25.38
2022-08-14T16:18:59.117Z,25.50
2022-08-14T16:22:58.094Z,25.91
2022-08-14T16:25:34.833Z,26.04
2022-08-14T16:28:39.973Z,26.42
2022-08-14T16:31:44.927Z,26.26
2022-08-14T16:34:54.946Z,26.98
2022-08-14T16:38:19.717Z,26.90
2022-08-14T16:41:27.508Z,27.12
2022-08-14T16:44:37.758Z,27.74
2022-08-14T16:47:43.484Z,27.64
2022-08-14T16:50:48.163Z,28.93
2022-08-14T16:53:51.083Z,28.26
2022-08-14T16:56:57.295Z,28.43
2022-08-14T17:00:00.478Z,29.49
2022-08-14T17:03:12.060Z,30.40
2022-08-14T17:06:42.945Z,29.88
2022-08-14T17:09:48.897Z,30.71
2022-08-14T17:12:51.681Z,32.24
2022-08-14T17:16:06.658Z,32.29
2022-08-14T17:19:14.157Z,33.21
2022-08-14T17:22:18.324Z,33.11
2022-08-14T17:25:37.080Z,33.36
2022-08-14T17:28:52.039Z,34.56
2022-08-14T17:32:02.148Z,35.10
2022-08-14T17:35:10.103Z,35.54
2022-08-14T17:38:38.908Z,35.67
2022-08-14T17:41:43.337Z,35.42
2022-08-14T17:44:48.205Z,35.71
2022-08-14T17:47:52.398Z,36.73
2022-08-14T17:51:00.564Z,36.69
2022-08-14T17:54:04.914Z,37.95
2022-08-14T17:57:14.325Z,38.29
2022-08-14T18:00:17.800Z,38.31
2022-08-14T18:03:50.218Z,39.32
2022-08-14T18:07:06.118Z,39.80
2022-08-14T18:10:52.971Z,40.12
2022-08-14T18:13:50.774Z,39.86
2022-08-14T18:16:55.936Z,40.93
2022-08-14T18:20:00.286Z,41.17
2022-08-14T18:23:06.206Z,41.44
2022-08-14T18:26:09.023Z,41.44
2022-08-14T18:29:33.471Z,41.73
2022-08-14T18:32:47.112Z,41.90
2022-08-14T18:35:59.248Z,42.14
2022-08-14T18:39:24.947Z,42.58
2022-08-14T18:42:30.305Z,43.17
2022-08-14T18:45:41.316Z,43.17
2022-08-14T18:48:51.560Z,43.55
2022-08-14T18:52:13.618Z,43.34
2022-08-14T18:55:22.356Z,43.23
2022-08-14T18:58:34.397Z,43.30
2022-08-14T19:01:37.710Z,43.72
2022-08-14T19:04:46.853Z,44.49
2022-08-14T19:08:25.055Z,44.61
2022-08-14T19:11:50.315Z,45.58
2022-08-14T19:15:07.697Z,47.05
2022-08-14T19:18:25.957Z,47.67
2022-08-14T19:21:55.312Z,48.20
2022-08-14T19:24:58.050Z,48.74
2022-08-14T19:28:30.923Z,49.91
2022-08-14T19:31:41.946Z,50.89
2022-08-14T19:34:52.771Z,50.75
2022-08-14T19:37:56.994Z,51.10
2022-08-14T19:41:01.817Z,51.93
2022-08-14T19:44:11.565Z,52.35
2022-08-14T19:47:14.454Z,52.55
2022-08-14T19:50:38.192Z,53.16
2022-08-14T19:54:13.456Z,53.23
2022-08-14T19:57:18.892Z,53.92
2022-08-14T20:00:29.530Z,54.65
2022-08-14T20:04:00.259Z,54.70
2022-08-14T20:07:06.311Z,55.05
2022-08-14T20:11:03.588Z,55.19
2022-08-14T20:14:20.867Z,55.29
2022-08-14T20:17:27.546Z,55.73
2022-08-14T20:20:32.788Z,56.13
2022-08-14T20:23:38.348Z,56.29
2022-08-14T20:26:46.910Z,56.58
2022-08-14T20:30:29.701Z,56.81
2022-08-14T20:33:47.902Z,57.07
2022-08-14T20:37:04.551Z,57.28
2022-08-14T20:40:23.744Z,57.76
2022-08-14T20:43:48.229Z,58.02
2022-08-14T20:47:00.972Z,57.93
2022-08-14T20:50:28.544Z,58.26
2022-08-14T20:53:34.109Z,58.70
2022-08-14T20:56:44.061Z,59.14
2022-08-14T20:59:53.475Z,59.68
2022-08-14T21:03:00.417Z,60.05
2022-08-14T21:06:17.039Z,60.39
2022-08-14T21:09:43.890Z,60.18
2022-08-14T21:13:09.335Z,60.55
2022-08-14T21:16:33.578Z,60.57
2022-08-14T21:19:34.983Z,60.65
2022-08-14T21:22:44.653Z,60.88
2022-08-14T21:25:50.698Z,61.21
2022-08-14T21:28:53.578Z,61.37
2022-08-14T21:31:56.702Z,62.06
2022-08-14T21:35:02.089Z,62.30
2022-08-14T21:38:18.321Z,62.61
2022-08-14T21:41:41.323Z,62.34
2022-08-14T21:44:50.883Z,62.58
2022-08-14T21:47:54.159Z,63.07
2022-08-14T21:51:01.734Z,63.29
2022-08-14T21:54:32.104Z,63.58
2022-08-14T21:57:56.615Z,63.77
2022-08-14T22:00:58.827Z,64.05
2022-08-14T22:04:33.681Z,64.15
2022-08-14T22:07:29.375Z,64.16
2022-08-14T22:10:38.044Z,64.49
2022-08-14T22:13:46.431Z,65.23
2022-08-14T22:17:02.027Z,65.09
2022-08-14T22:20:16.274Z,65.24
2022-08-14T22:23:20.306Z,65.32
2022-08-14T22:26:23.106Z,65.69
2022-08-14T22:29:34.414Z,65.83
2022-08-14T22:32:56.258Z,66.05
2022-08-14T22:36:01.787Z,66.01
2022-08-14T22:39:11.146Z,66.35
2022-08-14T22:42:21.054Z,66.68
2022-08-14T22:45:25.130Z,67.44
2022-08-14T22:48:39.562Z,67.03
2022-08-14T22:51:48.493Z,67.34
2022-08-14T22:54:53.918Z,67.35
2022-08-14T22:57:56.567Z,67.45
2022-08-14T23:01:02.418Z,67.86
2022-08-14T23:04:06.103Z,68.00
2022-08-14T23:07:22.098Z,67.68
2022-08-14T23:10:34.851Z,67.89
2022-08-14T23:13:43.514Z,68.15
2022-08-14T23:16:51.711Z,68.11
2022-08-14T23:20:00.998Z,68.14
2022-08-14T23:23:22.984Z,68.27
2022-08-14T23:26:48.613Z,68.13
2022-08-14T23:29:50.422Z,68.33
2022-08-14T23:32:56.638Z,68.67
2022-08-14T23:36:03.299Z,68.78
2022-08-14T23:39:12.319Z,68.48
2022-08-14T23:42:22.368Z,68.68
2022-08-14T23:45:47.731Z,68.97
2022-08-14T23:48:50.295Z,69.21
2022-08-14T23:52:49.516Z,69.41
2022-08-14T23:55:16.880Z,69.28
2022-08-14T23:58:29.245Z,69.27
